sensor_id;sensor_type;location;lat;lon;timestamp;temperature;humidity
35603;DHT22;21725;50.836;4.368;2023-10-13T00:01:48;21.40;99.90
35603;DHT22;21725;50.836;4.368;2023-10-13T00:04:52;21.40;99.90
35603;DHT22;21725;50.836;4.368;2023-10-13T00:07:55;21.40;99.90
35603;DHT22;21725;50.836;4.368;2023-10-13T00:11:04;21.50;99.90
35603;DHT22;21725;50.836;4.368;2023-10-13T00:14:05;21.50;99.90
35603;DHT22;21725;50.836;4.368;2023-10-13T00:17:19;21.60;99.90
35603;DHT22;21725;50.836;4.368;2023-10-13T00:20:28;21.60;99.90
35603;DHT22;21725;50.836;4.368;2023-10-13T00:23:41;21.60;99.90
35603;DHT22;21725;50.836;4.368;2023-10-13T00:27:17;21.60;99.90
35603;DHT22;21725;50.836;4.368;2023-10-13T00:30:33;21.60;99.90
35603;DHT22;21725;50.836;4.368;2023-10-13T00:33:38;21.50;99.90
35603;DHT22;21725;50.836;4.368;2023-10-13T00:36:41;21.40;99.90
35603;DHT22;21725;50.836;4.368;2023-10-13T00:40:19;21.20;99.90
35603;DHT22;21725;50.836;4.368;2023-10-13T00:43:44;21.00;99.90
35603;DHT22;21725;50.836;4.368;2023-10-13T00:47:05;20.90;99.90
35603;DHT22;21725;50.836;4.368;2023-10-13T00:50:15;20.90;99.90
35603;DHT22;21725;50.836;4.368;2023-10-13T00:53:25;21.00;99.90
35603;DHT22;21725;50.836;4.368;2023-10-13T00:56:36;21.00;99.90
35603;DHT22;21725;50.836;4.368;2023-10-13T01:00:01;21.10;99.90
35603;DHT22;21725;50.836;4.368;2023-10-13T01:03:18;21.10;99.90
35603;DHT22;21725;50.836;4.368;2023-10-13T01:06:27;21.10;99.90
35603;DHT22;21725;50.836;4.368;2023-10-13T01:09:40;21.10;99.90
35603;DHT22;21725;50.836;4.368;2023-10-13T01:12:42;21.00;99.90
35603;DHT22;21725;50.836;4.368;2023-10-13T01:15:55;21.10;99.90
35603;DHT22;21725;50.836;4.368;2023-10-13T01:18:57;21.00;99.90
35603;DHT22;21725;50.836;4.368;2023-10-13T01:22:00;21.00;99.90
35603;DHT22;21725;50.836;4.368;2023-10-13T01:25:05;21.00;99.90
35603;DHT22;21725;50.836;4.368;2023-10-13T01:28:16;21.00;99.90
35603;DHT22;21725;50.836;4.368;2023-10-13T01:31:17;20.90;99.90
35603;DHT22;21725;50.836;4.368;2023-10-13T01:34:34;20.90;99.90
35603;DHT22;21725;50.836;4.368;2023-10-13T01:37:37;21.10;99.90
35603;DHT22;21725;50.836;4.368;2023-10-13T01:40:38;21.00;99.90
35603;DHT22;21725;50.836;4.368;2023-10-13T01:43:38;21.00;99.90
35603;DHT22;21725;50.836;4.368;2023-10-13T01:46:42;21.10;99.90
35603;DHT22;21725;50.836;4.368;2023-10-13T01:49:44;21.20;99.90
35603;DHT22;21725;50.836;4.368;2023-10-13T01:52:55;21.10;99.90
35603;DHT22;21725;50.836;4.368;2023-10-13T01:56:22;21.00;99.90
35603;DHT22;21725;50.836;4.368;2023-10-13T01:59:30;20.90;99.90
35603;DHT22;21725;50.836;4.368;2023-10-13T02:02:31;20.90;99.90
35603;DHT22;21725;50.836;4.368;2023-10-13T02:05:32;20.80;99.90
35603;DHT22;21725;50.836;4.368;2023-10-13T02:08:39;20.90;99.90
35603;DHT22;21725;50.836;4.368;2023-10-13T02:11:44;20.80;99.90
35603;DHT22;21725;50.836;4.368;2023-10-13T02:14:52;20.90;99.90
35603;DHT22;21725;50.836;4.368;2023-10-13T02:18:18;20.80;99.90
35603;DHT22;21725;50.836;4.368;2023-10-13T02:21:26;20.70;99.90
35603;DHT22;21725;50.836;4.368;2023-10-13T02:24:34;20.60;99.90
35603;DHT22;21725;50.836;4.368;2023-10-13T02:27:40;20.70;99.90
35603;DHT22;21725;50.836;4.368;2023-10-13T02:30:48;20.80;99.90
35603;DHT22;21725;50.836;4.368;2023-10-13T02:33:51;20.80;99.90
35603;DHT22;21725;50.836;4.368;2023-10-13T02:36:52;20.90;99.90
35603;DHT22;21725;50.836;4.368;2023-10-13T02:40:11;21.00;99.90
35603;DHT22;21725;50.836;4.368;2023-10-13T02:43:14;21.10;99.90
35603;DHT22;21725;50.836;4.368;2023-10-13T02:46:15;21.10;99.90
35603;DHT22;21725;50.836;4.368;2023-10-13T02:49:16;21.10;99.90
35603;DHT22;21725;50.836;4.368;2023-10-13T02:52:28;21.00;99.90
35603;DHT22;21725;50.836;4.368;2023-10-13T02:55:39;21.00;99.90
35603;DHT22;21725;50.836;4.368;2023-10-13T02:59:11;21.00;99.90
35603;DHT22;21725;50.836;4.368;2023-10-13T03:02:16;21.10;99.90
35603;DHT22;21725;50.836;4.368;2023-10-13T03:05:28;21.00;99.90
35603;DHT22;21725;50.836;4.368;2023-10-13T03:08:33;21.00;99.90
35603;DHT22;21725;50.836;4.368;2023-10-13T03:11:47;21.00;99.90
35603;DHT22;21725;50.836;4.368;2023-10-13T03:14:58;21.10;99.90
35603;DHT22;21725;50.836;4.368;2023-10-13T03:18:13;21.10;99.90
35603;DHT22;21725;50.836;4.368;2023-10-13T03:21:25;21.10;99.90
35603;DHT22;21725;50.836;4.368;2023-10-13T03:24:29;21.10;99.90
35603;DHT22;21725;50.836;4.368;2023-10-13T03:27:50;21.00;99.90
35603;DHT22;21725;50.836;4.368;2023-10-13T03:30:51;21.10;99.90
35603;DHT22;21725;50.836;4.368;2023-10-13T03:34:18;21.10;99.90
35603;DHT22;21725;50.836;4.368;2023-10-13T03:37:22;21.10;99.90
35603;DHT22;21725;50.836;4.368;2023-10-13T03:40:38;21.10;99.90
35603;DHT22;21725;50.836;4.368;2023-10-13T03:43:47;21.10;99.90
35603;DHT22;21725;50.836;4.368;2023-10-13T03:47:05;21.20;99.90
35603;DHT22;21725;50.836;4.368;2023-10-13T03:50:36;21.10;99.90
35603;DHT22;21725;50.836;4.368;2023-10-13T03:53:41;21.00;99.90
35603;DHT22;21725;50.836;4.368;2023-10-13T03:56:59;21.10;99.90
35603;DHT22;21725;50.836;4.368;2023-10-13T04:00:14;21.10;99.90
35603;DHT22;21725;50.836;4.368;2023-10-13T04:03:24;21.10;99.90
35603;DHT22;21725;50.836;4.368;2023-10-13T04:06:38;21.00;99.90
35603;DHT22;21725;50.836;4.368;2023-10-13T04:09:54;21.10;99.90
35603;DHT22;21725;50.836;4.368;2023-10-13T04:13:13;21.10;99.90
35603;DHT22;21725;50.836;4.368;2023-10-13T04:16:53;20.90;99.90
35603;DHT22;21725;50.836;4.368;2023-10-13T04:20:03;21.10;99.90
35603;DHT22;21725;50.836;4.368;2023-10-13T04:23:07;21.00;99.90
35603;DHT22;21725;50.836;4.368;2023-10-13T04:26:22;21.00;99.90
35603;DHT22;21725;50.836;4.368;2023-10-13T04:29:37;21.10;99.90
35603;DHT22;21725;50.836;4.368;2023-10-13T04:33:11;21.20;99.90
35603;DHT22;21725;50.836;4.368;2023-10-13T04:36:30;21.20;99.90
35603;DHT22;21725;50.836;4.368;2023-10-13T04:39:34;21.20;99.90
35603;DHT22;21725;50.836;4.368;2023-10-13T04:42:39;21.10;99.90
35603;DHT22;21725;50.836;4.368;2023-10-13T04:45:52;21.10;99.90
35603;DHT22;21725;50.836;4.368;2023-10-13T04:49:16;20.90;99.90
35603;DHT22;21725;50.836;4.368;2023-10-13T04:52:35;20.70;99.90
35603;DHT22;21725;50.836;4.368;2023-10-13T04:55:55;20.80;99.90
35603;DHT22;21725;50.836;4.368;2023-10-13T04:59:22;20.80;99.90
35603;DHT22;21725;50.836;4.368;2023-10-13T05:05:16;20.60;99.90
35603;DHT22;21725;50.836;4.368;2023-10-13T05:08:51;20.30;99.90
35603;DHT22;21725;50.836;4.368;2023-10-13T05:12:14;20.30;99.90
35603;DHT22;21725;50.836;4.368;2023-10-13T05:15:33;20.40;99.90
35603;DHT22;21725;50.836;4.368;2023-10-13T05:18:52;20.60;99.90
35603;DHT22;21725;50.836;4.368;2023-10-13T05:22:19;20.60;99.90
35603;DHT22;21725;50.836;4.368;2023-10-13T05:25:46;20.60;99.90
35603;DHT22;21725;50.836;4.368;2023-10-13T05:29:05;20.60;99.90
35603;DHT22;21725;50.836;4.368;2023-10-13T05:32:25;20.50;99.90
35603;DHT22;21725;50.836;4.368;2023-10-13T05:35:46;20.40;99.90
35603;DHT22;21725;50.836;4.368;2023-10-13T05:39:06;20.50;99.90
35603;DHT22;21725;50.836;4.368;2023-10-13T05:42:25;20.60;99.90
35603;DHT22;21725;50.836;4.368;2023-10-13T05:45:44;20.60;99.90
35603;DHT22;21725;50.836;4.368;2023-10-13T05:49:41;20.60;99.90
35603;DHT22;21725;50.836;4.368;2023-10-13T05:52:53;20.70;99.90
35603;DHT22;21725;50.836;4.368;2023-10-13T05:56:01;20.70;99.90
35603;DHT22;21725;50.836;4.368;2023-10-13T05:59:22;20.70;99.90
35603;DHT22;21725;50.836;4.368;2023-10-13T06:02:42;20.70;99.90
35603;DHT22;21725;50.836;4.368;2023-10-13T06:06:07;20.70;99.90
35603;DHT22;21725;50.836;4.368;2023-10-13T06:09:28;20.70;99.90
35603;DHT22;21725;50.836;4.368;2023-10-13T06:12:50;20.70;99.90
35603;DHT22;21725;50.836;4.368;2023-10-13T06:16:11;20.80;99.90
35603;DHT22;21725;50.836;4.368;2023-10-13T06:19:43;20.80;99.90
35603;DHT22;21725;50.836;4.368;2023-10-13T06:23:05;20.80;99.90
35603;DHT22;21725;50.836;4.368;2023-10-13T06:26:27;20.80;99.90
35603;DHT22;21725;50.836;4.368;2023-10-13T06:29:46;20.70;99.90
35603;DHT22;21725;50.836;4.368;2023-10-13T06:32:52;20.60;99.90
35603;DHT22;21725;50.836;4.368;2023-10-13T06:36:08;20.80;99.90
35603;DHT22;21725;50.836;4.368;2023-10-13T06:39:11;20.90;99.90
35603;DHT22;21725;50.836;4.368;2023-10-13T06:42:37;21.00;99.90
35603;DHT22;21725;50.836;4.368;2023-10-13T06:45:43;21.10;99.90
35603;DHT22;21725;50.836;4.368;2023-10-13T06:49:05;21.20;99.90
35603;DHT22;21725;50.836;4.368;2023-10-13T06:52:14;21.30;99.90
35603;DHT22;21725;50.836;4.368;2023-10-13T06:55:18;21.30;99.90
35603;DHT22;21725;50.836;4.368;2023-10-13T06:58:35;21.40;99.90
35603;DHT22;21725;50.836;4.368;2023-10-13T07:01:46;21.50;99.90
35603;DHT22;21725;50.836;4.368;2023-10-13T07:05:03;21.60;99.90
35603;DHT22;21725;50.836;4.368;2023-10-13T07:08:24;21.50;99.90
35603;DHT22;21725;50.836;4.368;2023-10-13T07:11:45;21.50;99.90
35603;DHT22;21725;50.836;4.368;2023-10-13T07:15:06;21.50;99.90
35603;DHT22;21725;50.836;4.368;2023-10-13T07:18:16;21.50;99.90
35603;DHT22;21725;50.836;4.368;2023-10-13T07:21:26;21.50;99.90
35603;DHT22;21725;50.836;4.368;2023-10-13T07:24:31;21.50;99.90
35603;DHT22;21725;50.836;4.368;2023-10-13T07:27:41;21.60;99.90
35603;DHT22;21725;50.836;4.368;2023-10-13T07:30:50;21.80;99.90
35603;DHT22;21725;50.836;4.368;2023-10-13T07:34:02;21.80;99.90
35603;DHT22;21725;50.836;4.368;2023-10-13T07:37:18;22.00;99.90
35603;DHT22;21725;50.836;4.368;2023-10-13T07:40:32;22.10;99.90
35603;DHT22;21725;50.836;4.368;2023-10-13T07:43:41;22.20;99.90
35603;DHT22;21725;50.836;4.368;2023-10-13T07:46:42;22.30;99.90
35603;DHT22;21725;50.836;4.368;2023-10-13T07:49:47;22.30;99.90
35603;DHT22;21725;50.836;4.368;2023-10-13T07:53:05;22.40;99.90
35603;DHT22;21725;50.836;4.368;2023-10-13T07:56:33;22.60;99.90
35603;DHT22;21725;50.836;4.368;2023-10-13T07:59:37;22.60;99.90
35603;DHT22;21725;50.836;4.368;2023-10-13T08:02:55;22.70;99.90
35603;DHT22;21725;50.836;4.368;2023-10-13T08:06:17;22.70;99.90
35603;DHT22;21725;50.836;4.368;2023-10-13T08:09:29;22.70;99.90
35603;DHT22;21725;50.836;4.368;2023-10-13T08:12:43;22.80;99.90
35603;DHT22;21725;50.836;4.368;2023-10-13T08:15:46;22.70;99.90
35603;DHT22;21725;50.836;4.368;2023-10-13T08:19:01;22.60;99.90
35603;DHT22;21725;50.836;4.368;2023-10-13T08:22:02;22.70;99.90
35603;DHT22;21725;50.836;4.368;2023-10-13T08:25:21;22.70;99.90
35603;DHT22;21725;50.836;4.368;2023-10-13T08:28:27;22.90;99.90
35603;DHT22;21725;50.836;4.368;2023-10-13T08:31:57;22.90;99.90
35603;DHT22;21725;50.836;4.368;2023-10-13T08:35:27;23.00;99.90
35603;DHT22;21725;50.836;4.368;2023-10-13T08:39:07;22.90;99.90
35603;DHT22;21725;50.836;4.368;2023-10-13T08:42:48;23.00;99.90
35603;DHT22;21725;50.836;4.368;2023-10-13T08:46:01;23.30;99.90
35603;DHT22;21725;50.836;4.368;2023-10-13T08:49:07;23.20;99.90
35603;DHT22;21725;50.836;4.368;2023-10-13T08:52:21;23.10;99.90
35603;DHT22;21725;50.836;4.368;2023-10-13T08:55:43;23.00;99.90
35603;DHT22;21725;50.836;4.368;2023-10-13T08:59:06;23.00;99.90
35603;DHT22;21725;50.836;4.368;2023-10-13T09:02:16;23.20;99.90
35603;DHT22;21725;50.836;4.368;2023-10-13T09:05:25;23.30;99.90
35603;DHT22;21725;50.836;4.368;2023-10-13T09:12:36;23.50;99.90
35603;DHT22;21725;50.836;4.368;2023-10-13T09:15:39;23.20;99.90
35603;DHT22;21725;50.836;4.368;2023-10-13T09:19:11;23.10;99.90
35603;DHT22;21725;50.836;4.368;2023-10-13T09:22:20;23.30;99.90
35603;DHT22;21725;50.836;4.368;2023-10-13T09:25:41;23.40;99.90
35603;DHT22;21725;50.836;4.368;2023-10-13T09:29:22;23.60;99.90
35603;DHT22;21725;50.836;4.368;2023-10-13T09:32:42;23.60;99.90
35603;DHT22;21725;50.836;4.368;2023-10-13T09:35:54;23.50;99.90
35603;DHT22;21725;50.836;4.368;2023-10-13T09:38:58;23.60;99.90
35603;DHT22;21725;50.836;4.368;2023-10-13T09:42:30;23.70;99.90
35603;DHT22;21725;50.836;4.368;2023-10-13T09:45:37;23.80;99.70
35603;DHT22;21725;50.836;4.368;2023-10-13T09:48:45;23.90;99.80
35603;DHT22;21725;50.836;4.368;2023-10-13T09:52:07;24.00;99.30
35603;DHT22;21725;50.836;4.368;2023-10-13T09:55:26;24.00;99.30
35603;DHT22;21725;50.836;4.368;2023-10-13T09:58:33;24.10;99.10
35603;DHT22;21725;50.836;4.368;2023-10-13T10:01:41;24.20;99.10
35603;DHT22;21725;50.836;4.368;2023-10-13T10:04:54;24.30;98.80
35603;DHT22;21725;50.836;4.368;2023-10-13T10:08:11;24.40;98.60
35603;DHT22;21725;50.836;4.368;2023-10-13T10:15:32;24.40;98.40
35603;DHT22;21725;50.836;4.368;2023-10-13T10:18:46;24.30;98.70
35603;DHT22;21725;50.836;4.368;2023-10-13T10:21:46;24.40;98.30
35603;DHT22;21725;50.836;4.368;2023-10-13T10:25:27;24.40;98.40
35603;DHT22;21725;50.836;4.368;2023-10-13T10:28:38;24.50;98.30
35603;DHT22;21725;50.836;4.368;2023-10-13T10:31:44;24.70;98.00
35603;DHT22;21725;50.836;4.368;2023-10-13T10:38:17;24.80;97.80
35603;DHT22;21725;50.836;4.368;2023-10-13T10:41:29;24.80;97.70
35603;DHT22;21725;50.836;4.368;2023-10-13T10:44:43;24.80;97.80
35603;DHT22;21725;50.836;4.368;2023-10-13T10:48:18;24.70;97.70
35603;DHT22;21725;50.836;4.368;2023-10-13T10:51:20;24.80;97.60
35603;DHT22;21725;50.836;4.368;2023-10-13T10:54:26;24.90;97.40
35603;DHT22;21725;50.836;4.368;2023-10-13T10:57:31;25.10;97.20
35603;DHT22;21725;50.836;4.368;2023-10-13T11:00:39;25.30;96.80
35603;DHT22;21725;50.836;4.368;2023-10-13T11:04:04;25.30;96.70
35603;DHT22;21725;50.836;4.368;2023-10-13T11:07:20;25.30;96.70
35603;DHT22;21725;50.836;4.368;2023-10-13T11:10:21;25.40;96.50
35603;DHT22;21725;50.836;4.368;2023-10-13T11:13:42;25.60;96.00
35603;DHT22;21725;50.836;4.368;2023-10-13T11:17:10;25.70;95.70
35603;DHT22;21725;50.836;4.368;2023-10-13T11:20:31;25.60;95.70
35603;DHT22;21725;50.836;4.368;2023-10-13T11:23:56;25.70;95.40
35603;DHT22;21725;50.836;4.368;2023-10-13T11:27:18;25.80;95.20
35603;DHT22;21725;50.836;4.368;2023-10-13T11:30:46;25.80;95.10
35603;DHT22;21725;50.836;4.368;2023-10-13T11:33:50;25.90;94.50
35603;DHT22;21725;50.836;4.368;2023-10-13T11:36:55;25.90;94.50
35603;DHT22;21725;50.836;4.368;2023-10-13T11:40:18;25.70;94.60
35603;DHT22;21725;50.836;4.368;2023-10-13T11:43:52;25.80;94.50
35603;DHT22;21725;50.836;4.368;2023-10-13T11:46:57;25.80;94.40
35603;DHT22;21725;50.836;4.368;2023-10-13T11:50:19;25.80;94.50
35603;DHT22;21725;50.836;4.368;2023-10-13T11:53:46;25.90;94.30
35603;DHT22;21725;50.836;4.368;2023-10-13T11:56:54;25.80;94.10
35603;DHT22;21725;50.836;4.368;2023-10-13T12:00:30;25.90;93.90
35603;DHT22;21725;50.836;4.368;2023-10-13T12:03:55;25.80;93.70
35603;DHT22;21725;50.836;4.368;2023-10-13T12:07:19;25.70;93.90
35603;DHT22;21725;50.836;4.368;2023-10-13T12:10:43;25.60;94.20
35603;DHT22;21725;50.836;4.368;2023-10-13T12:14:08;25.60;94.10
35603;DHT22;21725;50.836;4.368;2023-10-13T12:17:19;25.50;94.10
35603;DHT22;21725;50.836;4.368;2023-10-13T12:20:28;25.60;94.00
35603;DHT22;21725;50.836;4.368;2023-10-13T12:23:42;25.50;94.00
35603;DHT22;21725;50.836;4.368;2023-10-13T12:26:48;25.40;94.00
35603;DHT22;21725;50.836;4.368;2023-10-13T12:29:52;25.30;94.30
35603;DHT22;21725;50.836;4.368;2023-10-13T12:32:59;25.10;94.20
35603;DHT22;21725;50.836;4.368;2023-10-13T12:36:21;24.90;94.40
35603;DHT22;21725;50.836;4.368;2023-10-13T12:39:44;24.60;94.80
35603;DHT22;21725;50.836;4.368;2023-10-13T12:43:09;24.50;95.10
35603;DHT22;21725;50.836;4.368;2023-10-13T12:46:28;24.80;94.90
35603;DHT22;21725;50.836;4.368;2023-10-13T12:49:47;24.90;94.90
35603;DHT22;21725;50.836;4.368;2023-10-13T12:52:51;24.90;95.00
35603;DHT22;21725;50.836;4.368;2023-10-13T12:55:54;25.10;94.90
35603;DHT22;21725;50.836;4.368;2023-10-13T12:58:57;24.90;94.90
35603;DHT22;21725;50.836;4.368;2023-10-13T13:02:01;25.00;94.70
35603;DHT22;21725;50.836;4.368;2023-10-13T13:05:17;25.10;94.80
35603;DHT22;21725;50.836;4.368;2023-10-13T13:08:25;25.10;94.70
35603;DHT22;21725;50.836;4.368;2023-10-13T13:11:40;25.10;94.80
35603;DHT22;21725;50.836;4.368;2023-10-13T13:14:44;25.10;94.80
35603;DHT22;21725;50.836;4.368;2023-10-13T13:17:46;25.00;94.80
35603;DHT22;21725;50.836;4.368;2023-10-13T13:20:47;25.10;94.70
35603;DHT22;21725;50.836;4.368;2023-10-13T13:23:59;25.00;95.00
35603;DHT22;21725;50.836;4.368;2023-10-13T13:27:11;24.90;94.90
35603;DHT22;21725;50.836;4.368;2023-10-13T13:30:27;24.90;95.00
35603;DHT22;21725;50.836;4.368;2023-10-13T13:33:36;24.80;95.40
35603;DHT22;21725;50.836;4.368;2023-10-13T13:36:43;24.80;95.30
35603;DHT22;21725;50.836;4.368;2023-10-13T13:39:52;24.80;95.40
35603;DHT22;21725;50.836;4.368;2023-10-13T13:42:56;25.00;95.20
35603;DHT22;21725;50.836;4.368;2023-10-13T13:46:04;25.10;95.20
35603;DHT22;21725;50.836;4.368;2023-10-13T13:49:09;25.20;95.00
35603;DHT22;21725;50.836;4.368;2023-10-13T13:52:19;25.20;94.90
35603;DHT22;21725;50.836;4.368;2023-10-13T13:55:36;25.20;94.70
35603;DHT22;21725;50.836;4.368;2023-10-13T13:58:40;25.00;95.20
35603;DHT22;21725;50.836;4.368;2023-10-13T14:01:42;24.90;95.20
35603;DHT22;21725;50.836;4.368;2023-10-13T14:05:04;25.10;94.80
35603;DHT22;21725;50.836;4.368;2023-10-13T14:11:32;24.90;95.20
35603;DHT22;21725;50.836;4.368;2023-10-13T14:15:02;24.90;95.10
35603;DHT22;21725;50.836;4.368;2023-10-13T14:18:27;25.00;95.10
35603;DHT22;21725;50.836;4.368;2023-10-13T14:21:34;25.00;95.00
35603;DHT22;21725;50.836;4.368;2023-10-13T14:24:38;25.10;95.00
35603;DHT22;21725;50.836;4.368;2023-10-13T14:27:55;25.10;94.90
35603;DHT22;21725;50.836;4.368;2023-10-13T14:31:06;25.00;94.90
35603;DHT22;21725;50.836;4.368;2023-10-13T14:34:17;24.90;95.00
35603;DHT22;21725;50.836;4.368;2023-10-13T14:37:23;24.80;95.10
35603;DHT22;21725;50.836;4.368;2023-10-13T14:40:34;24.80;95.20
35603;DHT22;21725;50.836;4.368;2023-10-13T14:43:39;24.80;95.20
35603;DHT22;21725;50.836;4.368;2023-10-13T14:46:48;25.10;94.80
35603;DHT22;21725;50.836;4.368;2023-10-13T14:50:02;25.10;94.80
35603;DHT22;21725;50.836;4.368;2023-10-13T14:53:04;24.90;95.10
35603;DHT22;21725;50.836;4.368;2023-10-13T14:56:05;24.60;95.50
35603;DHT22;21725;50.836;4.368;2023-10-13T14:59:09;24.60;95.60
35603;DHT22;21725;50.836;4.368;2023-10-13T15:02:19;24.60;95.90
35603;DHT22;21725;50.836;4.368;2023-10-13T15:05:20;24.50;96.20
35603;DHT22;21725;50.836;4.368;2023-10-13T15:08:23;24.40;96.60
35603;DHT22;21725;50.836;4.368;2023-10-13T15:11:28;24.30;96.30
35603;DHT22;21725;50.836;4.368;2023-10-13T15:14:40;24.40;96.20
35603;DHT22;21725;50.836;4.368;2023-10-13T15:17:51;24.20;96.50
35603;DHT22;21725;50.836;4.368;2023-10-13T15:20:57;24.20;96.40
35603;DHT22;21725;50.836;4.368;2023-10-13T15:24:11;24.20;96.60
35603;DHT22;21725;50.836;4.368;2023-10-13T15:27:17;24.10;96.80
35603;DHT22;21725;50.836;4.368;2023-10-13T15:30:22;23.80;97.40
35603;DHT22;21725;50.836;4.368;2023-10-13T15:33:33;23.80;97.70
35603;DHT22;21725;50.836;4.368;2023-10-13T15:36:45;23.70;97.90
35603;DHT22;21725;50.836;4.368;2023-10-13T15:39:56;23.60;98.10
35603;DHT22;21725;50.836;4.368;2023-10-13T15:43:07;23.50;98.10
35603;DHT22;21725;50.836;4.368;2023-10-13T15:46:16;23.50;97.90
35603;DHT22;21725;50.836;4.368;2023-10-13T15:49:26;23.40;98.40
35603;DHT22;21725;50.836;4.368;2023-10-13T15:52:29;23.50;97.90
35603;DHT22;21725;50.836;4.368;2023-10-13T15:55:41;23.50;97.60
35603;DHT22;21725;50.836;4.368;2023-10-13T15:58:49;23.60;97.60
35603;DHT22;21725;50.836;4.368;2023-10-13T16:01:50;23.70;97.70
35603;DHT22;21725;50.836;4.368;2023-10-13T16:05:06;23.80;97.20
35603;DHT22;21725;50.836;4.368;2023-10-13T16:08:08;23.80;97.50
35603;DHT22;21725;50.836;4.368;2023-10-13T16:11:15;23.90;97.30
35603;DHT22;21725;50.836;4.368;2023-10-13T16:14:19;23.90;97.30
35603;DHT22;21725;50.836;4.368;2023-10-13T16:17:28;23.90;97.50
35603;DHT22;21725;50.836;4.368;2023-10-13T16:20:32;23.80;98.00
35603;DHT22;21725;50.836;4.368;2023-10-13T16:23:38;23.50;98.00
35603;DHT22;21725;50.836;4.368;2023-10-13T16:27:07;23.30;98.50
35603;DHT22;21725;50.836;4.368;2023-10-13T16:30:16;23.20;98.80
35603;DHT22;21725;50.836;4.368;2023-10-13T16:33:24;23.10;99.30
35603;DHT22;21725;50.836;4.368;2023-10-13T16:36:35;23.20;99.40
35603;DHT22;21725;50.836;4.368;2023-10-13T16:39:38;23.20;99.90
35603;DHT22;21725;50.836;4.368;2023-10-13T16:42:44;23.20;99.90
35603;DHT22;21725;50.836;4.368;2023-10-13T16:45:47;23.00;99.90
35603;DHT22;21725;50.836;4.368;2023-10-13T16:48:48;23.10;99.90
35603;DHT22;21725;50.836;4.368;2023-10-13T16:51:49;23.00;99.90
35603;DHT22;21725;50.836;4.368;2023-10-13T16:54:53;23.00;99.90
35603;DHT22;21725;50.836;4.368;2023-10-13T16:57:59;23.20;99.90
35603;DHT22;21725;50.836;4.368;2023-10-13T17:01:02;23.00;99.90
35603;DHT22;21725;50.836;4.368;2023-10-13T17:04:09;22.90;99.90
35603;DHT22;21725;50.836;4.368;2023-10-13T17:07:15;22.90;99.90
35603;DHT22;21725;50.836;4.368;2023-10-13T17:10:19;23.00;99.90
35603;DHT22;21725;50.836;4.368;2023-10-13T17:13:24;23.00;99.90
35603;DHT22;21725;50.836;4.368;2023-10-13T17:16:26;22.80;99.90
35603;DHT22;21725;50.836;4.368;2023-10-13T17:19:31;22.80;99.90
35603;DHT22;21725;50.836;4.368;2023-10-13T17:22:53;22.80;99.90
35603;DHT22;21725;50.836;4.368;2023-10-13T17:26:05;22.70;99.90
35603;DHT22;21725;50.836;4.368;2023-10-13T17:29:37;22.70;99.90
35603;DHT22;21725;50.836;4.368;2023-10-13T17:33:00;22.70;99.90
35603;DHT22;21725;50.836;4.368;2023-10-13T17:36:04;22.70;99.90
35603;DHT22;21725;50.836;4.368;2023-10-13T17:39:07;22.80;99.90
35603;DHT22;21725;50.836;4.368;2023-10-13T17:42:15;22.70;99.90
35603;DHT22;21725;50.836;4.368;2023-10-13T17:45:18;22.80;99.90
35603;DHT22;21725;50.836;4.368;2023-10-13T17:48:19;22.90;99.90
35603;DHT22;21725;50.836;4.368;2023-10-13T17:51:23;23.00;99.90
35603;DHT22;21725;50.836;4.368;2023-10-13T17:54:24;23.10;99.90
35603;DHT22;21725;50.836;4.368;2023-10-13T17:57:24;23.00;99.90
35603;DHT22;21725;50.836;4.368;2023-10-13T18:00:28;23.10;99.90
35603;DHT22;21725;50.836;4.368;2023-10-13T18:03:29;23.10;99.90
35603;DHT22;21725;50.836;4.368;2023-10-13T18:06:30;23.00;99.90
35603;DHT22;21725;50.836;4.368;2023-10-13T18:09:31;23.10;99.90
35603;DHT22;21725;50.836;4.368;2023-10-13T18:12:32;23.00;99.90
35603;DHT22;21725;50.836;4.368;2023-10-13T18:15:33;23.00;99.90
35603;DHT22;21725;50.836;4.368;2023-10-13T18:18:34;23.10;99.90
35603;DHT22;21725;50.836;4.368;2023-10-13T18:21:35;23.00;99.90
35603;DHT22;21725;50.836;4.368;2023-10-13T18:24:36;23.00;99.90
35603;DHT22;21725;50.836;4.368;2023-10-13T18:27:39;23.00;99.90
35603;DHT22;21725;50.836;4.368;2023-10-13T18:30:42;23.00;99.90
35603;DHT22;21725;50.836;4.368;2023-10-13T18:33:43;22.90;99.90
35603;DHT22;21725;50.836;4.368;2023-10-13T18:36:50;22.80;99.90
35603;DHT22;21725;50.836;4.368;2023-10-13T18:39:52;22.80;99.90
35603;DHT22;21725;50.836;4.368;2023-10-13T18:42:53;22.80;99.90
35603;DHT22;21725;50.836;4.368;2023-10-13T18:46:03;22.60;99.90
35603;DHT22;21725;50.836;4.368;2023-10-13T18:49:06;22.60;99.90
35603;DHT22;21725;50.836;4.368;2023-10-13T18:52:11;22.50;99.90
35603;DHT22;21725;50.836;4.368;2023-10-13T18:55:14;22.50;99.90
35603;DHT22;21725;50.836;4.368;2023-10-13T18:58:15;22.40;99.90
35603;DHT22;21725;50.836;4.368;2023-10-13T19:01:19;22.40;99.90
35603;DHT22;21725;50.836;4.368;2023-10-13T19:04:27;22.20;99.90
35603;DHT22;21725;50.836;4.368;2023-10-13T19:08:10;22.30;99.90
35603;DHT22;21725;50.836;4.368;2023-10-13T19:11:19;22.40;99.90
35603;DHT22;21725;50.836;4.368;2023-10-13T19:14:23;22.60;99.90
35603;DHT22;21725;50.836;4.368;2023-10-13T19:21:28;22.60;99.90
35603;DHT22;21725;50.836;4.368;2023-10-13T19:24:43;22.60;99.90
35603;DHT22;21725;50.836;4.368;2023-10-13T19:31:23;22.70;99.90
35603;DHT22;21725;50.836;4.368;2023-10-13T19:34:56;22.80;99.90
35603;DHT22;21725;50.836;4.368;2023-10-13T19:38:20;22.70;99.90
35603;DHT22;21725;50.836;4.368;2023-10-13T19:41:27;22.60;99.90
35603;DHT22;21725;50.836;4.368;2023-10-13T19:44:35;22.70;99.90
35603;DHT22;21725;50.836;4.368;2023-10-13T19:47:46;22.60;99.90
35603;DHT22;21725;50.836;4.368;2023-10-13T19:50:59;22.30;99.90
35603;DHT22;21725;50.836;4.368;2023-10-13T19:57:26;22.30;99.90
35603;DHT22;21725;50.836;4.368;2023-10-13T20:00:38;22.30;99.90
35603;DHT22;21725;50.836;4.368;2023-10-13T20:04:04;22.30;99.90
35603;DHT22;21725;50.836;4.368;2023-10-13T20:07:22;22.30;99.90
35603;DHT22;21725;50.836;4.368;2023-10-13T20:10:43;22.30;99.90
35603;DHT22;21725;50.836;4.368;2023-10-13T20:13:47;22.60;99.90
35603;DHT22;21725;50.836;4.368;2023-10-13T20:17:03;22.40;99.90
35603;DHT22;21725;50.836;4.368;2023-10-13T20:20:24;22.50;99.90
35603;DHT22;21725;50.836;4.368;2023-10-13T20:24:02;22.50;99.90
35603;DHT22;21725;50.836;4.368;2023-10-13T20:27:22;22.40;99.90
35603;DHT22;21725;50.836;4.368;2023-10-13T20:30:36;22.30;99.90
35603;DHT22;21725;50.836;4.368;2023-10-13T20:34:01;22.40;99.90
35603;DHT22;21725;50.836;4.368;2023-10-13T20:37:32;22.40;99.90
35603;DHT22;21725;50.836;4.368;2023-10-13T20:41:00;22.40;99.90
35603;DHT22;21725;50.836;4.368;2023-10-13T20:44:27;22.20;99.90